Time;durP1;ratioP1;P1;durP2;ratioP2;P2;SDS_P1;SDS_P2;PMS_P1;PMS_P2;Temp;Humidity;BMP_temperature;BMP_pressure;BME280_temperature;BME280_humidity;BME280_pressure;Samples;Min_cycle;Max_cycle;Signal;HPM_P1;HPM_P2
2022/03/17 00:01:48;;;;;;;89.70;44.00;;;7.60;38.80;;;;;;5001543;28;20503;-67
2022/03/17 00:04:15;;;;;;;84.57;44.40;;;7.50;39.00;;;;;;5005128;28;20488;-67
2022/03/17 00:06:43;;;;;;;81.70;43.50;;;7.50;39.00;;;;;;5002201;28;20464;-67
2022/03/17 00:09:10;;;;;;;86.20;42.90;;;7.50;39.00;;;;;;5003490;28;20479;-68
2022/03/17 00:11:37;;;;;;;79.63;44.70;;;7.50;39.00;;;;;;4999585;28;20624;-67
2022/03/17 00:14:04;;;;;;;88.97;44.67;;;7.50;39.00;;;;;;5003986;28;20465;-67
2022/03/17 00:16:32;;;;;;;79.77;41.70;;;7.50;38.90;;;;;;5003511;28;20460;-67
2022/03/17 00:19:07;;;;;;;79.30;41.70;;;7.50;39.00;;;;;;5003636;28;21055;-67
2022/03/17 00:21:35;;;;;;;80.97;43.67;;;7.40;38.90;;;;;;5003022;28;20468;-68
2022/03/17 00:24:03;;;;;;;83.63;43.33;;;7.40;38.90;;;;;;5001267;28;20483;-67
2022/03/17 00:26:30;;;;;;;83.40;42.73;;;7.40;38.90;;;;;;5003041;28;20487;-67
2022/03/17 00:28:57;;;;;;;88.90;45.87;;;7.40;38.80;;;;;;5003254;28;20480;-67
2022/03/17 00:31:24;;;;;;;80.93;42.93;;;7.40;38.90;;;;;;5004099;28;20519;-67
2022/03/17 00:33:51;;;;;;;86.43;46.87;;;7.40;39.10;;;;;;5003942;28;20467;-67
2022/03/17 00:36:17;;;;;;;85.17;45.33;;;7.40;38.90;;;;;;5002059;28;20499;-65
2022/03/17 00:38:44;;;;;;;84.37;44.80;;;7.40;38.80;;;;;;5000836;28;20480;-67
2022/03/17 00:41:12;;;;;;;86.97;46.37;;;7.40;38.90;;;;;;5002655;28;20460;-66
2022/03/17 00:43:39;;;;;;;88.23;44.47;;;7.40;38.90;;;;;;5004032;28;20493;-68
2022/03/17 00:46:06;;;;;;;81.70;43.67;;;7.30;38.90;;;;;;5004750;28;20993;-66
2022/03/17 00:48:33;;;;;;;85.33;45.33;;;7.30;39.10;;;;;;5005197;28;20503;-67
2022/03/17 00:50:59;;;;;;;84.40;44.10;;;7.30;39.60;;;;;;5001798;28;20460;-67
2022/03/17 00:53:26;;;;;;;83.93;46.30;;;7.40;39.00;;;;;;5003401;28;21254;-67
2022/03/17 00:55:53;;;;;;;84.70;44.27;;;7.30;39.00;;;;;;5003975;28;20460;-67
2022/03/17 00:58:22;;;;;;;90.07;46.90;;;7.30;38.90;;;;;;5002809;28;20488;-65
2022/03/17 01:00:49;;;;;;;84.60;45.30;;;7.30;39.00;;;;;;5003270;28;20463;-67
2022/03/17 01:03:16;;;;;;;85.50;46.80;;;7.30;38.90;;;;;;5002432;28;20460;-67
2022/03/17 01:05:43;;;;;;;82.37;43.30;;;7.30;38.80;;;;;;5002423;28;20488;-65
2022/03/17 01:08:09;;;;;;;85.07;45.43;;;7.30;38.80;;;;;;5001634;28;21087;-66
2022/03/17 01:10:38;;;;;;;85.17;45.13;;;7.30;38.70;;;;;;5000618;28;20494;-67
2022/03/17 01:13:05;;;;;;;84.83;43.33;;;7.30;38.80;;;;;;5004185;28;20526;-63
2022/03/17 01:15:34;;;;;;;83.47;44.60;;;7.30;38.70;;;;;;5003826;28;20448;-67
2022/03/17 01:18:00;;;;;;;87.77;45.20;;;7.30;38.70;;;;;;5004196;28;20692;-66
2022/03/17 01:20:29;;;;;;;85.87;45.67;;;7.20;38.60;;;;;;5002229;28;20470;-66
2022/03/17 01:22:55;;;;;;;88.67;46.27;;;7.20;38.50;;;;;;4998995;28;20460;-65
2022/03/17 01:25:22;;;;;;;88.70;46.83;;;7.20;38.50;;;;;;4998565;28;20476;-67
2022/03/17 01:27:49;;;;;;;86.47;44.87;;;7.20;38.50;;;;;;4998267;28;20526;-67
2022/03/17 01:30:17;;;;;;;85.40;45.27;;;7.20;38.60;;;;;;5002987;28;20954;-67
2022/03/17 01:32:45;;;;;;;87.87;45.80;;;7.10;38.60;;;;;;4997721;28;20479;-67
2022/03/17 01:35:12;;;;;;;86.30;45.13;;;7.10;38.60;;;;;;4997369;28;20468;-67
2022/03/17 01:37:39;;;;;;;87.67;44.23;;;7.10;38.60;;;;;;5002004;28;20517;-66
2022/03/17 01:40:07;;;;;;;83.37;42.77;;;7.10;38.60;;;;;;4998894;28;20460;-68
2022/03/17 01:42:34;;;;;;;87.93;43.90;;;7.10;38.50;;;;;;5001297;28;20462;-67
2022/03/17 01:45:01;;;;;;;85.07;43.37;;;7.10;38.40;;;;;;5005606;28;20475;-67
2022/03/17 01:47:28;;;;;;;90.30;46.07;;;7.10;38.30;;;;;;5004459;28;20487;-69
2022/03/17 01:49:56;;;;;;;86.60;43.20;;;7.10;38.20;;;;;;5001789;28;21010;-68
2022/03/17 01:52:23;;;;;;;90.00;44.80;;;7.10;38.20;;;;;;5007092;28;20464;-66
2022/03/17 01:54:51;;;;;;;84.97;44.00;;;7.00;38.10;;;;;;5006356;28;20460;-67
2022/03/17 01:57:18;;;;;;;85.97;46.00;;;7.00;38.00;;;;;;4999956;28;20487;-67
2022/03/17 01:59:45;;;;;;;86.07;43.67;;;6.90;38.00;;;;;;5005589;28;20467;-67
2022/03/17 02:02:14;;;;;;;88.40;45.77;;;7.00;38.00;;;;;;5006647;28;20476;-67
2022/03/17 02:04:42;;;;;;;89.67;45.83;;;7.00;38.00;;;;;;5004029;28;20865;-68
2022/03/17 02:07:14;;;;;;;84.50;43.23;;;7.00;38.00;;;;;;5005570;28;20534;-67
2022/03/17 02:09:42;;;;;;;85.73;45.27;;;6.90;38.00;;;;;;5001306;28;20466;-70
2022/03/17 02:14:55;;;;;;;83.80;43.37;;;6.90;38.10;;;;;;5000028;28;20447;-66
2022/03/17 02:17:23;;;;;;;89.07;47.53;;;6.90;38.10;;;;;;5005390;28;20479;-67
2022/03/17 02:19:51;;;;;;;83.73;43.20;;;6.90;38.40;;;;;;5005650;28;20810;-69
2022/03/17 02:22:22;;;;;;;85.00;43.10;;;6.90;38.20;;;;;;4998897;28;20546;-66
2022/03/17 02:27:40;;;;;;;80.03;40.53;;;6.90;38.20;;;;;;5005004;28;20479;-69
2022/03/17 02:30:09;;;;;;;86.43;43.10;;;6.90;38.30;;;;;;5004342;28;20953;-69
2022/03/17 02:32:35;;;;;;;82.73;42.40;;;6.90;38.40;;;;;;5002413;28;20478;-68
2022/03/17 02:35:05;;;;;;;84.13;42.70;;;6.90;38.60;;;;;;5000203;28;20474;-66
2022/03/17 02:37:32;;;;;;;81.87;39.20;;;6.90;38.70;;;;;;5006063;28;21098;-68
2022/03/17 02:40:01;;;;;;;81.13;40.80;;;6.90;38.50;;;;;;5007182;28;20464;-69
2022/03/17 02:42:30;;;;;;;82.97;41.30;;;6.80;38.70;;;;;;5002721;28;20460;-69
2022/03/17 02:44:57;;;;;;;79.47;40.60;;;6.80;38.40;;;;;;5005710;28;20499;-68
2022/03/17 02:47:24;;;;;;;84.77;43.50;;;6.80;38.30;;;;;;4997720;28;20961;-67
2022/03/17 02:49:52;;;;;;;87.63;44.20;;;6.80;38.40;;;;;;5003403;28;20456;-67
2022/03/17 02:52:20;;;;;;;82.93;42.50;;;6.80;38.40;;;;;;5001484;28;20468;-66
2022/03/17 02:54:47;;;;;;;84.57;42.00;;;6.80;38.30;;;;;;5008749;28;20510;-67
2022/03/17 02:57:15;;;;;;;83.83;41.50;;;6.70;38.30;;;;;;5005032;28;20486;-69
2022/03/17 02:59:42;;;;;;;87.47;44.43;;;6.70;38.40;;;;;;5006531;28;20543;-67
2022/03/17 03:02:09;;;;;;;84.43;42.17;;;6.70;38.30;;;;;;4994875;28;20562;-67
2022/03/17 03:04:36;;;;;;;83.97;41.60;;;6.70;38.30;;;;;;5006172;28;20488;-70
2022/03/17 03:07:03;;;;;;;83.80;42.00;;;6.70;38.30;;;;;;5007691;28;20492;-69
2022/03/17 03:09:30;;;;;;;85.17;42.30;;;6.70;38.40;;;;;;5010752;28;20464;-69
2022/03/17 03:11:57;;;;;;;86.50;41.57;;;6.60;38.10;;;;;;5007797;28;20474;-69
2022/03/17 03:14:25;;;;;;;80.43;40.90;;;6.60;38.20;;;;;;5009428;28;20546;-69
2022/03/17 03:16:52;;;;;;;84.33;42.47;;;6.60;38.30;;;;;;5010046;28;20550;-67
2022/03/17 03:19:19;;;;;;;88.30;43.60;;;6.60;38.30;;;;;;5009658;28;20495;-69
2022/03/17 03:21:46;;;;;;;81.43;40.57;;;6.60;38.40;;;;;;5003024;28;20474;-66
2022/03/17 03:24:13;;;;;;;88.77;44.63;;;6.60;38.50;;;;;;5009145;28;20460;-69
2022/03/17 03:26:41;;;;;;;85.50;42.90;;;6.60;38.60;;;;;;5003036;28;20463;-69
2022/03/17 03:29:09;;;;;;;84.77;43.03;;;6.60;38.50;;;;;;5008065;28;20461;-66
2022/03/17 03:31:38;;;;;;;82.07;41.50;;;6.60;38.50;;;;;;4996098;28;21305;-69
2022/03/17 03:34:04;;;;;;;77.90;39.83;;;6.60;38.60;;;;;;5002354;28;20467;-69
2022/03/17 03:39:15;;;;;;;82.43;41.00;;;6.60;38.80;;;;;;5005141;28;20446;-68
2022/03/17 03:41:42;;;;;;;87.83;43.37;;;6.60;38.70;;;;;;5007433;28;20459;-69
2022/03/17 03:44:14;;;;;;;83.27;40.97;;;6.60;38.70;;;;;;5005319;28;20962;-70
2022/03/17 03:46:42;;;;;;;85.20;41.67;;;6.60;38.80;;;;;;4999486;28;20485;-68
2022/03/17 03:49:09;;;;;;;83.10;41.20;;;6.60;38.80;;;;;;5009259;28;20464;-67
2022/03/17 03:51:36;;;;;;;80.90;38.67;;;6.60;38.70;;;;;;5000663;28;20468;-69
2022/03/17 03:54:17;;;;;;;87.27;42.10;;;6.60;38.70;;;;;;5007509;28;20479;-69
2022/03/17 03:56:46;;;;;;;84.90;41.90;;;6.60;38.60;;;;;;5005886;28;20799;-68
2022/03/17 03:59:16;;;;;;;81.13;39.37;;;6.60;38.60;;;;;;5006219;28;20464;-70
2022/03/17 04:01:44;;;;;;;85.37;42.80;;;6.60;38.50;;;;;;4999475;28;20495;-69
2022/03/17 04:04:13;;;;;;;85.77;41.37;;;6.60;38.60;;;;;;5001915;28;20496;-70
2022/03/17 04:06:42;;;;;;;81.87;41.13;;;6.60;38.50;;;;;;5007381;28;21001;-70
2022/03/17 04:09:09;;;;;;;84.27;42.60;;;6.60;38.50;;;;;;5004045;28;20467;-69
2022/03/17 04:11:36;;;;;;;80.80;38.10;;;6.60;38.70;;;;;;5003749;28;20465;-70
2022/03/17 04:14:02;;;;;;;77.60;38.00;;;6.60;38.50;;;;;;4997595;28;20468;-69
2022/03/17 04:16:29;;;;;;;85.77;42.37;;;6.50;38.50;;;;;;5001338;28;20472;-67
2022/03/17 04:18:57;;;;;;;85.03;40.87;;;6.60;38.50;;;;;;5005349;28;20487;-69
2022/03/17 04:21:24;;;;;;;85.80;41.53;;;6.50;38.60;;;;;;5002715;28;20460;-68
2022/03/17 04:23:51;;;;;;;85.67;41.57;;;6.50;38.50;;;;;;5008432;28;21122;-69
2022/03/17 04:26:18;;;;;;;83.13;40.37;;;6.60;38.40;;;;;;5007358;28;20479;-66
2022/03/17 04:28:45;;;;;;;81.97;40.90;;;6.60;38.40;;;;;;5007834;28;20491;-69
2022/03/17 04:31:12;;;;;;;81.93;40.90;;;6.60;38.40;;;;;;5006138;28;20483;-68
2022/03/17 04:33:39;;;;;;;80.80;39.50;;;6.60;38.40;;;;;;5003307;28;20475;-68
2022/03/17 04:36:10;;;;;;;82.60;40.13;;;6.60;38.30;;;;;;5007356;28;20463;-67
2022/03/17 04:38:37;;;;;;;80.17;38.77;;;6.60;38.20;;;;;;5007068;28;20484;-69
2022/03/17 04:41:04;;;;;;;82.27;38.87;;;6.60;38.10;;;;;;5003811;28;20916;-67
2022/03/17 04:43:31;;;;;;;81.07;41.10;;;6.60;38.10;;;;;;5006274;28;20468;-68
2022/03/17 04:45:58;;;;;;;81.97;40.20;;;6.60;38.00;;;;;;5007229;28;20484;-70
2022/03/17 04:48:25;;;;;;;77.87;39.90;;;6.60;37.90;;;;;;5006536;28;20480;-69
2022/03/17 04:50:52;;;;;;;80.60;38.37;;;6.60;38.00;;;;;;5007114;28;20463;-69
2022/03/17 04:53:29;;;;;;;83.30;40.63;;;6.60;37.80;;;;;;5002105;28;20479;-67
2022/03/17 04:55:57;;;;;;;79.90;39.60;;;6.60;37.90;;;;;;5005048;28;21037;-65
2022/03/17 04:58:24;;;;;;;86.97;41.23;;;6.60;37.90;;;;;;5004936;28;20482;-66
2022/03/17 05:00:52;;;;;;;79.07;39.93;;;6.60;37.70;;;;;;4998472;28;20490;-69
2022/03/17 05:03:19;;;;;;;80.47;38.50;;;6.60;37.60;;;;;;4999423;28;20452;-68
2022/03/17 05:05:46;;;;;;;80.67;39.73;;;6.60;37.70;;;;;;5002993;28;20483;-68
2022/03/17 05:08:12;;;;;;;85.90;42.37;;;6.60;37.70;;;;;;5002810;28;20885;-68
2022/03/17 05:10:42;;;;;;;82.73;40.17;;;6.60;37.70;;;;;;5005954;28;20479;-63
2022/03/17 05:13:10;;;;;;;83.27;41.40;;;6.60;37.80;;;;;;4999272;28;20468;-67
2022/03/17 05:15:38;;;;;;;83.73;42.40;;;6.60;37.70;;;;;;4999971;28;20459;-68
2022/03/17 05:18:06;;;;;;;85.97;42.50;;;6.60;37.70;;;;;;5000598;28;20491;-67
2022/03/17 05:20:33;;;;;;;86.47;42.23;;;6.60;37.60;;;;;;4998452;28;20638;-67
2022/03/17 05:23:00;;;;;;;87.63;41.10;;;6.60;37.60;;;;;;5003357;28;20468;-69
2022/03/17 05:25:27;;;;;;;83.00;41.87;;;6.60;37.60;;;;;;4995193;28;21026;-68
2022/03/17 05:27:55;;;;;;;85.43;43.00;;;6.70;37.70;;;;;;5005019;28;20488;-66
2022/03/17 05:30:22;;;;;;;81.90;40.97;;;6.70;37.50;;;;;;5008068;28;20988;-65
2022/03/17 05:32:48;;;;;;;81.73;42.00;;;6.70;37.60;;;;;;5006972;28;20471;-68
2022/03/17 05:35:17;;;;;;;82.80;40.77;;;6.70;37.60;;;;;;5006834;28;20499;-66
2022/03/17 05:37:45;;;;;;;85.20;40.57;;;6.70;37.60;;;;;;5005229;28;20471;-66
2022/03/17 05:40:15;;;;;;;76.43;39.13;;;6.70;37.50;;;;;;5005904;28;20466;-65
2022/03/17 05:42:42;;;;;;;80.77;39.57;;;6.70;37.50;;;;;;5001574;28;20464;-66
2022/03/17 05:45:11;;;;;;;86.07;43.17;;;6.70;37.60;;;;;;5001689;28;20967;-67
2022/03/17 05:47:39;;;;;;;82.90;41.43;;;6.70;37.60;;;;;;4997679;28;20488;-66
2022/03/17 05:50:09;;;;;;;85.87;39.97;;;6.70;37.60;;;;;;5005988;28;20460;-67
2022/03/17 05:52:38;;;;;;;85.23;44.20;;;6.70;37.40;;;;;;5005713;28;20475;-66
2022/03/17 05:55:06;;;;;;;84.57;41.27;;;6.70;37.40;;;;;;4999122;28;21212;-65
2022/03/17 05:57:34;;;;;;;86.57;44.40;;;6.70;37.40;;;;;;5006586;28;20479;-65
2022/03/17 06:00:01;;;;;;;89.63;43.80;;;6.70;37.40;;;;;;5006314;28;20463;-69
2022/03/17 06:02:29;;;;;;;86.73;42.47;;;6.70;37.40;;;;;;4997436;28;20992;-67
2022/03/17 06:04:56;;;;;;;80.57;40.77;;;6.80;37.30;;;;;;5005754;28;20479;-65
2022/03/17 06:07:23;;;;;;;86.33;44.70;;;6.80;37.30;;;;;;4997522;28;20483;-65
2022/03/17 06:09:50;;;;;;;86.97;44.40;;;6.80;37.20;;;;;;5002766;28;20467;-70
2022/03/17 06:12:16;;;;;;;83.80;42.57;;;6.90;37.20;;;;;;4998299;28;20465;-65
2022/03/17 06:14:44;;;;;;;80.27;40.67;;;6.90;37.30;;;;;;5003501;28;20485;-64
2022/03/17 06:17:11;;;;;;;91.00;43.80;;;6.90;37.40;;;;;;5007450;28;20475;-66
2022/03/17 06:19:40;;;;;;;83.87;43.40;;;6.90;37.40;;;;;;5004180;28;20464;-65
2022/03/17 06:22:07;;;;;;;79.00;39.97;;;7.00;37.30;;;;;;5001478;28;20550;-66
2022/03/17 06:24:33;;;;;;;89.30;45.97;;;7.00;37.00;;;;;;5007526;28;20463;-61
2022/03/17 06:27:00;;;;;;;83.17;41.57;;;7.00;36.90;;;;;;5008571;28;21237;-60
2022/03/17 06:29:27;;;;;;;82.77;41.83;;;7.00;36.90;;;;;;5004983;28;20468;-65
2022/03/17 06:31:54;;;;;;;87.87;45.00;;;7.10;37.00;;;;;;5008045;28;20483;-64
2022/03/17 06:34:21;;;;;;;85.27;43.53;;;7.10;36.80;;;;;;5005029;28;20495;-67
2022/03/17 06:36:49;;;;;;;86.53;45.27;;;7.10;36.90;;;;;;5006499;28;20459;-66
2022/03/17 06:39:15;;;;;;;101.07;50.90;;;7.20;36.70;;;;;;5004185;28;20499;-70
2022/03/17 06:41:42;;;;;;;89.73;46.20;;;7.20;36.60;;;;;;5009570;28;20490;-66
2022/03/17 06:44:09;;;;;;;99.20;51.30;;;7.30;36.70;;;;;;5000443;28;20464;-68
2022/03/17 06:46:36;;;;;;;115.07;57.43;;;7.30;36.60;;;;;;5011314;28;20479;-65
2022/03/17 06:49:02;;;;;;;96.63;51.90;;;7.30;36.60;;;;;;5008744;28;20864;-64
2022/03/17 06:51:29;;;;;;;86.40;45.27;;;7.40;36.60;;;;;;5004623;28;20464;-68
2022/03/17 06:53:57;;;;;;;78.90;41.60;;;7.40;36.50;;;;;;5010789;28;20464;-63
2022/03/17 06:56:24;;;;;;;80.80;42.57;;;7.40;36.50;;;;;;5005192;28;20814;-65
2022/03/17 06:58:51;;;;;;;83.70;41.80;;;7.50;36.50;;;;;;5011015;28;20498;-65
2022/03/17 07:01:17;;;;;;;85.10;43.00;;;7.50;36.50;;;;;;5002631;28;20479;-65
2022/03/17 07:03:44;;;;;;;83.10;41.60;;;7.60;36.20;;;;;;5005466;28;20456;-62
2022/03/17 07:06:11;;;;;;;82.40;42.13;;;7.60;36.00;;;;;;5007157;28;20492;-66
2022/03/17 07:08:37;;;;;;;80.80;41.27;;;7.60;36.00;;;;;;5003790;28;20484;-65
2022/03/17 07:11:06;;;;;;;83.70;42.53;;;7.70;36.10;;;;;;5006122;28;20464;-66
2022/03/17 07:13:32;;;;;;;84.37;43.70;;;7.70;36.00;;;;;;5009440;28;20820;-64
2022/03/17 07:16:02;;;;;;;80.63;40.43;;;7.80;35.90;;;;;;5006127;28;20464;-65
2022/03/17 07:18:29;;;;;;;87.80;41.30;;;7.90;35.70;;;;;;5007775;28;20495;-65
2022/03/17 07:20:57;;;;;;;79.27;42.07;;;7.90;35.70;;;;;;5007940;28;20475;-66
2022/03/17 07:23:24;;;;;;;79.77;42.60;;;7.90;35.60;;;;;;5005768;28;21200;-65
2022/03/17 07:25:52;;;;;;;81.60;41.17;;;8.00;35.50;;;;;;5008788;28;20487;-66
2022/03/17 07:28:21;;;;;;;83.33;42.80;;;8.00;35.40;;;;;;5006525;28;20506;-67
2022/03/17 07:30:47;;;;;;;81.23;41.33;;;8.10;35.40;;;;;;5005402;28;20553;-66
2022/03/17 07:33:14;;;;;;;78.50;42.00;;;8.10;35.10;;;;;;5003738;28;20471;-67
2022/03/17 07:35:41;;;;;;;84.17;42.03;;;8.20;35.00;;;;;;5004965;28;20467;-66
2022/03/17 07:38:08;;;;;;;83.23;42.20;;;8.20;34.60;;;;;;4996681;28;20876;-68
2022/03/17 07:40:35;;;;;;;79.97;40.77;;;8.20;34.60;;;;;;5008937;28;20993;-69
2022/03/17 07:43:02;;;;;;;80.23;40.63;;;8.20;34.60;;;;;;5006507;28;20464;-67
2022/03/17 07:45:30;;;;;;;78.20;41.13;;;8.20;34.70;;;;;;5009327;28;20483;-66
2022/03/17 07:47:57;;;;;;;86.77;44.27;;;8.20;34.60;;;;;;5002067;28;21076;-66
2022/03/17 07:50:23;;;;;;;87.30;47.00;;;8.30;34.60;;;;;;5009001;28;20479;-67
2022/03/17 07:52:51;;;;;;;88.43;47.57;;;8.30;34.50;;;;;;5009908;28;20455;-65
2022/03/17 07:55:18;;;;;;;85.33;45.23;;;8.30;34.40;;;;;;5008042;28;20473;-66
2022/03/17 07:57:46;;;;;;;79.43;39.83;;;8.40;34.40;;;;;;5005551;28;20567;-64
2022/03/17 08:00:14;;;;;;;77.30;41.47;;;8.40;34.20;;;;;;5002812;28;20459;-65
2022/03/17 08:02:42;;;;;;;79.70;40.83;;;8.40;34.60;;;;;;5008971;28;20839;-65
2022/03/17 08:05:10;;;;;;;79.07;40.00;;;8.40;34.00;;;;;;5008287;28;20853;-64
2022/03/17 08:07:37;;;;;;;80.40;42.60;;;8.40;34.00;;;;;;5006773;28;20487;-64
2022/03/17 08:10:04;;;;;;;75.20;38.33;;;8.50;34.00;;;;;;5009627;28;20463;-62
2022/03/17 08:12:31;;;;;;;87.00;43.60;;;8.50;33.90;;;;;;5008571;28;20460;-64
2022/03/17 08:14:58;;;;;;;80.90;42.03;;;8.50;33.70;;;;;;5007834;28;20471;-57
2022/03/17 08:17:25;;;;;;;79.17;41.23;;;8.50;33.50;;;;;;5004453;28;20483;-56
2022/03/17 08:19:53;;;;;;;79.70;41.80;;;8.50;33.40;;;;;;5007876;28;20463;-57
2022/03/17 08:22:20;;;;;;;79.87;42.60;;;8.60;33.30;;;;;;5010082;28;20530;-57
2022/03/17 08:24:47;;;;;;;82.20;42.93;;;8.60;33.30;;;;;;5007978;28;20841;-57
2022/03/17 08:27:14;;;;;;;82.30;41.73;;;8.60;33.30;;;;;;5004862;28;20503;-56
2022/03/17 08:29:41;;;;;;;74.93;40.30;;;8.70;33.10;;;;;;5009756;28;20526;-56
2022/03/17 08:32:08;;;;;;;80.10;41.60;;;8.70;33.10;;;;;;5000364;28;20476;-58
2022/03/17 08:34:35;;;;;;;78.30;42.20;;;8.70;33.20;;;;;;5003730;28;20464;-57
2022/03/17 08:37:04;;;;;;;84.00;44.87;;;8.80;33.20;;;;;;5005522;28;20482;-58
2022/03/17 08:39:30;;;;;;;81.10;44.40;;;8.80;33.10;;;;;;5009992;28;20977;-57
2022/03/17 08:41:57;;;;;;;75.40;39.77;;;8.80;33.00;;;;;;5004159;28;21079;-56
2022/03/17 08:44:24;;;;;;;78.43;40.70;;;8.80;32.90;;;;;;5002034;28;20980;-57
2022/03/17 08:49:35;;;;;;;74.80;37.20;;;8.90;32.90;;;;;;5008075;28;20530;-57
2022/03/17 08:52:04;;;;;;;78.63;39.43;;;8.90;32.80;;;;;;5003140;28;20476;-58
2022/03/17 08:54:33;;;;;;;75.43;38.90;;;8.90;32.60;;;;;;5005267;28;20468;-58
2022/03/17 08:57:00;;;;;;;80.60;41.07;;;8.90;32.40;;;;;;5006687;28;20990;-58
2022/03/17 08:59:30;;;;;;;73.30;37.50;;;9.00;32.30;;;;;;4999498;28;20504;-58
2022/03/17 09:01:57;;;;;;;75.00;40.40;;;9.00;32.20;;;;;;5006366;28;20471;-58
2022/03/17 09:04:23;;;;;;;75.20;37.57;;;9.00;32.20;;;;;;5005963;28;20460;-58
2022/03/17 09:06:50;;;;;;;75.63;37.97;;;9.10;32.10;;;;;;5006296;28;20498;-59
2022/03/17 09:09:18;;;;;;;73.07;37.87;;;9.10;32.30;;;;;;5002901;28;20560;-58
2022/03/17 09:11:47;;;;;;;76.87;38.67;;;9.10;31.40;;;;;;5001640;28;20461;-57
2022/03/17 09:14:14;;;;;;;73.40;37.67;;;9.10;30.80;;;;;;5007284;28;20703;-56
2022/03/17 09:16:41;;;;;;;72.80;39.20;;;9.10;30.70;;;;;;5003866;28;20456;-57
2022/03/17 09:19:08;;;;;;;76.17;38.73;;;9.10;30.80;;;;;;5005961;28;20467;-57
2022/03/17 09:21:36;;;;;;;76.03;39.37;;;9.10;31.00;;;;;;5008809;28;20530;-58
2022/03/17 09:24:03;;;;;;;74.13;37.20;;;9.20;30.90;;;;;;5004251;28;20473;-59
2022/03/17 09:26:32;;;;;;;76.23;39.50;;;9.20;30.70;;;;;;4999924;28;20492;-57
2022/03/17 09:28:58;;;;;;;74.63;38.03;;;9.20;30.60;;;;;;5005632;28;20499;-58
2022/03/17 09:31:25;;;;;;;76.73;37.63;;;9.20;30.50;;;;;;5002234;28;20476;-58
2022/03/17 09:33:53;;;;;;;79.77;38.87;;;9.30;30.50;;;;;;5006623;28;20476;-57
2022/03/17 09:36:20;;;;;;;76.90;38.97;;;9.40;30.50;;;;;;5006975;28;20456;-58
2022/03/17 09:39:39;;;;;;;75.10;39.70;;;9.50;30.50;;;;;;5007190;28;20515;-57
2022/03/17 09:41:37;;;;;;;78.87;40.20;;;9.50;30.30;;;;;;5003468;28;20542;-57
2022/03/17 09:44:04;;;;;;;76.13;39.37;;;9.60;30.50;;;;;;5009163;28;20487;-58
2022/03/17 09:46:32;;;;;;;72.20;37.87;;;9.70;30.30;;;;;;5007936;28;20463;-57
2022/03/17 09:49:01;;;;;;;73.77;38.63;;;9.70;30.20;;;;;;5007063;28;20518;-57
2022/03/17 09:51:30;;;;;;;75.33;40.20;;;9.80;30.10;;;;;;5002559;28;20533;-57
2022/03/17 09:54:00;;;;;;;74.17;39.67;;;9.80;30.00;;;;;;5000652;28;20470;-57
2022/03/17 09:56:28;;;;;;;76.07;38.73;;;9.90;30.00;;;;;;5003798;28;20515;-57
2022/03/17 09:58:57;;;;;;;77.50;39.23;;;10.00;29.70;;;;;;4998225;28;20482;-60
2022/03/17 10:01:26;;;;;;;73.23;39.63;;;10.10;29.30;;;;;;4999169;28;20476;-59
2022/03/17 10:03:58;;;;;;;74.27;39.87;;;10.10;29.10;;;;;;5007054;28;20511;-60
2022/03/17 10:06:25;;;;;;;75.53;39.37;;;10.10;28.90;;;;;;5006505;28;20463;-63
2022/03/17 10:08:52;;;;;;;78.73;39.90;;;10.10;28.50;;;;;;5006858;28;20480;-59
2022/03/17 10:11:25;;;;;;;77.83;38.87;;;10.10;28.40;;;;;;5007044;28;20482;-60
2022/03/17 10:13:54;;;;;;;73.80;38.80;;;10.10;28.50;;;;;;4999064;28;20534;-60
2022/03/17 10:16:23;;;;;;;73.07;39.47;;;10.20;28.40;;;;;;5004018;28;20470;-59
2022/03/17 10:18:57;;;;;;;73.67;39.87;;;10.20;28.30;;;;;;5002706;28;20485;-60
2022/03/17 10:21:25;;;;;;;73.30;37.90;;;10.30;28.10;;;;;;5007612;28;20464;-60
2022/03/17 10:23:53;;;;;;;73.23;39.17;;;10.30;28.00;;;;;;5006934;28;20522;-61
2022/03/17 10:26:36;;;;;;;74.73;39.27;;;10.30;27.90;;;;;;5007081;28;20464;-59
2022/03/17 10:29:15;;;;;;;72.03;39.47;;;10.40;27.90;;;;;;4998412;28;20487;-60
2022/03/17 10:31:52;;;;;;;73.27;40.17;;;10.40;27.70;;;;;;5003731;28;20495;-60
2022/03/17 10:34:20;;;;;;;77.90;40.33;;;10.30;27.80;;;;;;5006406;28;20470;-57
2022/03/17 10:36:47;;;;;;;76.30;39.60;;;10.40;27.70;;;;;;5005165;28;20470;-58
2022/03/17 10:39:15;;;;;;;75.60;39.27;;;10.40;27.60;;;;;;5006707;28;21106;-57
2022/03/17 10:41:43;;;;;;;72.70;39.63;;;10.40;27.40;;;;;;5003372;28;20863;-58
2022/03/17 10:44:12;;;;;;;73.30;39.03;;;10.40;27.30;;;;;;4998365;28;20463;-61
2022/03/17 10:46:39;;;;;;;74.87;39.40;;;10.50;27.50;;;;;;5002383;28;20480;-57
2022/03/17 10:49:08;;;;;;;78.07;40.97;;;10.50;27.50;;;;;;5003512;28;20996;-58
2022/03/17 10:51:37;;;;;;;75.80;39.73;;;10.50;27.40;;;;;;5001550;28;21000;-57
2022/03/17 10:54:09;;;;;;;74.60;39.97;;;10.60;27.10;;;;;;5007276;28;20503;-60
2022/03/17 10:56:38;;;;;;;79.27;41.67;;;10.70;27.10;;;;;;5004987;28;20464;-57
2022/03/17 10:59:07;;;;;;;75.57;41.00;;;10.70;27.10;;;;;;5001143;28;20471;-58
2022/03/17 11:01:39;;;;;;;74.37;39.60;;;10.70;26.80;;;;;;5005229;28;20506;-58
2022/03/17 11:04:07;;;;;;;74.73;38.63;;;10.70;26.80;;;;;;5004901;28;20463;-58
2022/03/17 11:06:35;;;;;;;74.47;39.30;;;10.70;26.70;;;;;;5002371;28;20459;-59
2022/03/17 11:09:02;;;;;;;71.13;37.00;;;10.70;26.50;;;;;;5004650;28;20487;-57
2022/03/17 11:11:29;;;;;;;74.50;36.07;;;10.60;26.10;;;;;;5004156;28;20461;-58
2022/03/17 11:13:57;;;;;;;71.30;37.00;;;10.60;26.10;;;;;;5007468;28;20460;-58
2022/03/17 11:16:33;;;;;;;69.87;37.37;;;10.60;26.20;;;;;;5009492;28;20977;-58
2022/03/17 11:19:00;;;;;;;72.60;37.37;;;10.50;26.50;;;;;;5010561;28;20486;-57
2022/03/17 11:21:30;;;;;;;74.60;38.63;;;10.60;26.60;;;;;;5007638;28;20468;-57
2022/03/17 11:24:04;;;;;;;72.80;39.17;;;10.60;26.60;;;;;;5009294;28;20563;-57
2022/03/17 11:26:35;;;;;;;69.67;36.90;;;10.70;26.50;;;;;;5005469;28;20463;-58
2022/03/17 11:29:05;;;;;;;73.57;36.23;;;10.60;26.20;;;;;;5007985;28;20556;-57
2022/03/17 11:31:54;;;;;;;72.80;38.60;;;10.50;26.00;;;;;;5003309;28;20472;-58
2022/03/17 11:34:42;;;;;;;70.07;37.33;;;10.50;26.10;;;;;;5003085;28;20479;-57
2022/03/17 11:37:23;;;;;;;69.57;37.13;;;10.50;26.20;;;;;;5000188;28;20480;-56
2022/03/17 11:39:54;;;;;;;69.70;36.90;;;10.50;26.60;;;;;;5003394;28;20478;-58
2022/03/17 11:42:35;;;;;;;71.97;37.83;;;10.60;26.60;;;;;;5010648;28;20456;-58
2022/03/17 11:45:28;;;;;;;71.37;37.60;;;10.70;26.60;;;;;;5008877;28;20884;-58
2022/03/17 11:47:56;;;;;;;73.50;38.40;;;10.70;26.40;;;;;;5004647;28;20490;-57
2022/03/17 11:50:25;;;;;;;74.30;39.53;;;10.70;26.40;;;;;;5005423;28;20988;-57
2022/03/17 11:52:58;;;;;;;72.17;38.27;;;10.70;26.50;;;;;;5007716;28;20472;-56
2022/03/17 11:55:32;;;;;;;73.90;38.83;;;10.80;26.50;;;;;;5008372;28;20475;-58
2022/03/17 11:58:21;;;;;;;77.17;39.43;;;10.90;26.50;;;;;;5009525;28;20470;-58
2022/03/17 12:00:49;;;;;;;71.27;38.60;;;11.10;26.40;;;;;;5007023;28;20487;-58
2022/03/17 12:03:27;;;;;;;74.33;40.30;;;11.20;26.20;;;;;;5002972;28;21093;-58
2022/03/17 12:06:10;;;;;;;74.40;38.60;;;11.30;26.30;;;;;;4998143;28;20464;-57
2022/03/17 12:08:41;;;;;;;71.77;38.30;;;11.40;26.00;;;;;;5004169;28;20615;-58
2022/03/17 12:11:10;;;;;;;72.53;38.40;;;11.40;25.80;;;;;;5003380;28;20522;-58
2022/03/17 12:13:37;;;;;;;67.93;37.40;;;11.60;25.60;;;;;;5006943;28;20464;-57
2022/03/17 12:16:05;;;;;;;67.80;37.10;;;11.70;25.30;;;;;;5008883;28;20463;-57
2022/03/17 12:19:02;;;;;;;76.23;38.90;;;11.80;24.90;;;;;;5007397;28;20484;-58
2022/03/17 12:22:04;;;;;;;67.67;34.70;;;11.90;24.60;;;;;;5007891;28;20476;-57
2022/03/17 12:24:39;;;;;;;69.27;36.83;;;11.90;24.20;;;;;;5008508;28;20521;-57
2022/03/17 12:27:10;;;;;;;69.47;38.30;;;12.10;24.20;;;;;;5003432;28;20483;-57
2022/03/17 12:29:37;;;;;;;70.73;37.53;;;12.20;24.00;;;;;;5005146;28;20932;-58
2022/03/17 12:32:06;;;;;;;70.07;37.63;;;12.20;23.70;;;;;;5006150;28;20537;-58
2022/03/17 12:34:35;;;;;;;68.87;36.73;;;12.30;23.70;;;;;;5007884;28;20867;-58
2022/03/17 12:37:03;;;;;;;72.53;40.23;;;12.30;23.30;;;;;;5008572;28;20488;-58
2022/03/17 12:39:31;;;;;;;68.50;37.83;;;12.30;23.30;;;;;;5007817;28;20462;-57
2022/03/17 12:42:01;;;;;;;72.07;40.40;;;12.40;23.20;;;;;;5002794;28;20468;-56
2022/03/17 12:44:28;;;;;;;67.70;37.47;;;12.40;23.30;;;;;;5005038;28;20498;-58
2022/03/17 12:46:56;;;;;;;69.10;37.63;;;12.40;23.20;;;;;;5008699;28;20471;-57
2022/03/17 12:49:23;;;;;;;65.07;36.27;;;12.40;23.10;;;;;;5009352;28;20491;-58
2022/03/17 12:51:50;;;;;;;68.60;37.63;;;12.30;22.60;;;;;;5005677;28;20464;-58
2022/03/17 12:54:18;;;;;;;71.33;39.17;;;12.30;23.00;;;;;;5000712;28;20468;-57